createdAt,value
2023-04-02T00:00:10.276Z,100
2023-04-02T00:02:36.972Z,100
2023-04-02T00:05:02.227Z,100
2023-04-02T00:07:28.905Z,100
2023-04-02T00:09:54.249Z,100
2023-04-02T00:12:19.587Z,100
2023-04-02T00:14:46.109Z,100
2023-04-02T00:17:12.726Z,100
2023-04-02T00:22:06.221Z,100
2023-04-02T00:24:32.912Z,100
2023-04-02T00:26:59.590Z,100
2023-04-02T00:29:26.232Z,100
2023-04-02T00:31:52.893Z,100
2023-04-02T00:34:19.605Z,100
2023-04-02T00:36:46.394Z,100
2023-04-02T00:39:12.897Z,100
2023-04-02T00:41:39.740Z,100
2023-04-02T00:44:04.846Z,100
2023-04-02T00:46:31.496Z,100
2023-04-02T00:48:58.228Z,100
2023-04-02T00:51:25.028Z,100
2023-04-02T00:53:51.634Z,100
2023-04-02T00:56:18.252Z,100
2023-04-02T00:58:45.114Z,100
2023-04-02T01:01:11.741Z,100
2023-04-02T01:03:36.847Z,100
2023-04-02T01:06:02.076Z,100
2023-04-02T01:08:28.840Z,100
2023-04-02T01:10:55.545Z,100
2023-04-02T01:13:22.289Z,100
2023-04-02T01:15:48.824Z,100
2023-04-02T01:18:15.545Z,100
2023-04-02T01:20:42.322Z,100
2023-04-02T01:23:08.929Z,100
2023-04-02T01:25:35.543Z,100
2023-04-02T01:28:02.409Z,100
2023-04-02T01:30:28.923Z,100
2023-04-02T01:32:54.164Z,100
2023-04-02T01:35:19.405Z,100
2023-04-02T01:37:46.082Z,100
2023-04-02T01:40:12.820Z,100
2023-04-02T01:42:39.580Z,100
2023-04-02T01:45:06.149Z,100
2023-04-02T01:47:32.967Z,100
2023-04-02T01:49:59.662Z,100
2023-04-02T01:52:26.211Z,100
2023-04-02T01:54:52.655Z,100
2023-04-02T01:57:19.307Z,100
2023-04-02T01:59:46.024Z,100
2023-04-02T02:02:12.579Z,100
2023-04-02T02:04:39.441Z,100
2023-04-02T02:07:06.194Z,100
2023-04-02T02:09:32.785Z,100
2023-04-02T02:11:59.300Z,100
2023-04-02T02:14:26.060Z,100
2023-04-02T02:16:52.675Z,100
2023-04-02T02:19:19.508Z,100
2023-04-02T02:21:46.043Z,100
2023-04-02T02:24:12.744Z,100
2023-04-02T02:26:39.112Z,100
2023-04-02T02:29:05.723Z,100
2023-04-02T02:31:32.521Z,100
2023-04-02T02:33:59.189Z,100
2023-04-02T02:36:25.781Z,100
2023-04-02T02:38:52.510Z,100
2023-04-02T02:41:19.148Z,100
2023-04-02T02:43:45.886Z,100
2023-04-02T02:46:12.607Z,100
2023-04-02T02:48:39.210Z,100
2023-04-02T02:51:05.893Z,100
2023-04-02T02:53:32.647Z,100
2023-04-02T02:55:59.441Z,100
2023-04-02T02:58:24.659Z,100
2023-04-02T03:00:51.163Z,100
2023-04-02T03:03:17.836Z,100
2023-04-02T03:05:44.588Z,100
2023-04-02T03:08:11.211Z,100
2023-04-02T03:10:37.961Z,100
2023-04-02T03:13:04.656Z,100
2023-04-02T03:15:31.283Z,100
2023-04-02T03:17:58.092Z,100
2023-04-02T03:20:24.641Z,100
2023-04-02T03:22:51.354Z,100
2023-04-02T03:25:18.103Z,100
2023-04-02T03:27:44.887Z,100
2023-04-02T03:30:10.965Z,100
2023-04-02T03:32:37.756Z,100
2023-04-02T03:35:04.446Z,100
2023-04-02T03:37:31.269Z,100
2023-04-02T03:39:57.820Z,100
2023-04-02T03:42:24.463Z,100
2023-04-02T03:44:51.194Z,100
2023-04-02T03:47:17.820Z,100
2023-04-02T03:49:44.674Z,100
2023-04-02T03:52:11.137Z,100
2023-04-02T03:54:37.825Z,100
2023-04-02T03:57:04.514Z,100
2023-04-02T03:59:31.216Z,100
2023-04-02T04:01:57.958Z,100
2023-04-02T04:06:49.952Z,100
2023-04-02T04:09:16.629Z,100
2023-04-02T04:11:43.148Z,100
2023-04-02T04:14:09.862Z,100
2023-04-02T04:16:36.538Z,100
2023-04-02T04:19:03.250Z,100
2023-04-02T04:21:29.957Z,100
2023-04-02T04:23:56.773Z,100
2023-04-02T04:26:23.294Z,100
2023-04-02T04:28:50.186Z,100
2023-04-02T04:31:16.638Z,100
2023-04-02T04:33:43.481Z,100
2023-04-02T04:36:09.678Z,100
2023-04-02T04:38:36.300Z,100
2023-04-02T04:41:02.995Z,100
2023-04-02T04:43:29.681Z,100
2023-04-02T04:45:56.382Z,100
2023-04-02T04:48:23.059Z,100
2023-04-02T04:50:49.729Z,100
2023-04-02T04:53:16.427Z,100
2023-04-02T04:55:43.097Z,100
2023-04-02T04:58:09.790Z,100
2023-04-02T05:00:36.479Z,100
2023-04-02T05:03:03.153Z,100
2023-04-02T05:05:29.957Z,100
2023-04-02T05:07:55.068Z,100
2023-04-02T05:10:21.750Z,100
2023-04-02T05:12:48.426Z,100
2023-04-02T05:15:15.117Z,100
2023-04-02T05:17:41.797Z,100
2023-04-02T05:20:08.477Z,100
2023-04-02T05:22:35.169Z,100
2023-04-02T05:25:01.850Z,100
2023-04-02T05:27:28.549Z,100
2023-04-02T05:29:55.232Z,100
2023-04-02T05:32:21.913Z,100
2023-04-02T05:34:48.601Z,100
2023-04-02T05:37:15.406Z,100
2023-04-02T05:39:40.509Z,100
2023-04-02T05:42:07.217Z,100
2023-04-02T05:44:33.882Z,100
2023-04-02T05:47:00.576Z,100
2023-04-02T05:49:27.258Z,100
2023-04-02T05:51:53.973Z,100
2023-04-02T05:54:20.633Z,100
2023-04-02T05:56:47.405Z,100
2023-04-02T05:59:13.984Z,100
2023-04-02T06:01:40.686Z,100
2023-04-02T06:04:07.403Z,100
2023-04-02T06:06:34.048Z,100
2023-04-02T06:09:00.773Z,100
2023-04-02T06:11:27.413Z,100
2023-04-02T06:13:53.748Z,100
2023-04-02T06:16:20.413Z,100
2023-04-02T06:18:47.076Z,100
2023-04-02T06:21:13.774Z,100
2023-04-02T06:23:40.447Z,100
2023-04-02T06:26:07.147Z,100
2023-04-02T06:28:33.833Z,100
2023-04-02T06:31:00.505Z,100
2023-04-02T06:33:27.195Z,100
2023-04-02T06:35:53.887Z,100
2023-04-02T06:38:20.565Z,100
2023-04-02T06:40:47.245Z,100
2023-04-02T06:43:13.947Z,100
2023-04-02T06:45:39.180Z,100
2023-04-02T06:48:05.843Z,100
2023-04-02T06:50:32.527Z,100
2023-04-02T06:52:59.242Z,100
2023-04-02T06:55:26.028Z,100
2023-04-02T06:57:52.782Z,100
2023-04-02T07:00:19.275Z,100
2023-04-02T07:02:45.953Z,100
2023-04-02T07:05:12.633Z,100
2023-04-02T07:07:39.317Z,100
2023-04-02T07:10:06.005Z,100
2023-04-02T07:12:32.694Z,100
2023-04-02T07:14:59.558Z,100
2023-04-02T07:17:25.660Z,100
2023-04-02T07:19:52.358Z,100
2023-04-02T07:22:19.034Z,100
2023-04-02T07:24:45.723Z,100
2023-04-02T07:27:12.429Z,100
2023-04-02T07:29:39.173Z,100
2023-04-02T07:32:05.761Z,100
2023-04-02T07:34:32.474Z,100
2023-04-02T07:36:59.144Z,100
2023-04-02T07:39:25.840Z,100
2023-04-02T07:41:52.538Z,100
2023-04-02T07:44:19.171Z,100
2023-04-02T07:46:45.876Z,100
2023-04-02T07:49:11.229Z,100
2023-04-02T07:51:37.838Z,100
2023-04-02T07:54:04.475Z,100
2023-04-02T07:56:31.243Z,100
2023-04-02T07:58:57.842Z,100
2023-04-02T08:01:24.574Z,100
2023-04-02T08:03:51.217Z,100
2023-04-02T08:06:17.884Z,100
2023-04-02T08:08:44.580Z,100
2023-04-02T08:11:11.264Z,100
2023-04-02T08:13:37.942Z,100
2023-04-02T08:16:04.663Z,100
2023-04-02T08:18:31.334Z,100
2023-04-02T08:20:56.543Z,100
2023-04-02T08:23:23.264Z,100
2023-04-02T08:25:49.904Z,100
2023-04-02T08:28:16.599Z,100
2023-04-02T08:30:43.279Z,100
2023-04-02T08:35:36.887Z,100
2023-04-02T08:38:03.335Z,100
2023-04-02T08:40:30.016Z,100
2023-04-02T08:42:56.708Z,100
2023-04-02T08:45:23.385Z,100
2023-04-02T08:47:50.080Z,100
2023-04-02T08:50:16.749Z,100
2023-04-02T08:52:41.986Z,100
2023-04-02T08:55:08.714Z,100
2023-04-02T08:57:35.369Z,100
2023-04-02T09:00:02.075Z,100
2023-04-02T09:02:28.927Z,98.4
2023-04-02T09:04:55.543Z,100
2023-04-02T09:07:22.090Z,98
2023-04-02T09:09:48.821Z,100
2023-04-02T09:12:15.451Z,100
2023-04-02T09:14:42.199Z,98.8
2023-04-02T09:17:08.851Z,100
2023-04-02T09:19:35.523Z,100
2023-04-02T09:22:02.224Z,99.5
2023-04-02T09:24:27.528Z,99.3
2023-04-02T09:26:54.183Z,100
2023-04-02T09:29:20.793Z,100
2023-04-02T09:31:47.520Z,100
2023-04-02T09:34:14.183Z,96.2
2023-04-02T09:36:40.963Z,98.3
2023-04-02T09:39:07.557Z,97.2
2023-04-02T09:41:34.256Z,93.8
2023-04-02T09:44:00.901Z,95.2
2023-04-02T09:46:27.595Z,97.6
2023-04-02T09:48:54.297Z,95
2023-04-02T09:51:20.961Z,97.8
2023-04-02T09:53:47.735Z,99
2023-04-02T09:56:12.869Z,98.3
2023-04-02T09:58:39.563Z,100
2023-04-02T10:01:06.314Z,96.1
2023-04-02T10:03:32.931Z,95.8
2023-04-02T10:05:58.172Z,95.2
2023-04-02T10:08:24.839Z,95.5
2023-04-02T10:10:51.681Z,95.3
2023-04-02T10:13:18.213Z,86.8
2023-04-02T10:15:44.918Z,89.5
2023-04-02T10:18:11.632Z,89.3
2023-04-02T10:20:38.281Z,89.3
2023-04-02T10:23:04.956Z,87.5
2023-04-02T10:27:58.324Z,86.2
2023-04-02T10:30:25.037Z,85.7
2023-04-02T10:32:51.713Z,80.4
2023-04-02T10:35:18.376Z,84.5
2023-04-02T10:37:43.609Z,81.1
2023-04-02T10:42:36.988Z,75.3
2023-04-02T10:45:03.655Z,74.4
2023-04-02T10:47:30.337Z,70.2
2023-04-02T10:49:57.025Z,70.1
2023-04-02T10:52:23.711Z,71.5
2023-04-02T10:54:50.403Z,68.6
2023-04-02T10:57:17.111Z,70.1
2023-04-02T10:59:43.773Z,72.1
2023-04-02T11:02:10.454Z,73.8
2023-04-02T11:04:37.133Z,72.3
2023-04-02T11:07:03.856Z,70.8
2023-04-02T11:09:29.062Z,72.4
2023-04-02T11:11:55.839Z,74
2023-04-02T11:14:22.429Z,73
2023-04-02T11:16:49.112Z,72.1
2023-04-02T11:19:15.838Z,75.1
2023-04-02T11:21:42.472Z,79
2023-04-02T11:26:35.834Z,78.5
2023-04-02T11:29:02.518Z,81.3
2023-04-02T11:31:29.216Z,81.7
2023-04-02T11:33:55.905Z,82.5
2023-04-02T11:36:22.592Z,78.4
2023-04-02T11:38:49.257Z,79.4
2023-04-02T11:41:14.500Z,83
2023-04-02T11:43:41.180Z,82.1
2023-04-02T11:46:07.943Z,78.8
2023-04-02T11:48:34.560Z,82.8
2023-04-02T11:51:01.231Z,77.7
2023-04-02T11:55:54.595Z,77.2
2023-04-02T11:58:21.278Z,77.4
2023-04-02T12:00:47.973Z,81
2023-04-02T12:03:14.650Z,78.6
2023-04-02T12:05:41.329Z,79.2
2023-04-02T12:08:08.104Z,78.3
2023-04-02T12:10:34.892Z,78.9
2023-04-02T12:12:59.936Z,79.2
2023-04-02T12:15:26.665Z,76.6
2023-04-02T12:17:53.280Z,78.6
2023-04-02T12:20:19.994Z,77.4
2023-04-02T12:22:46.668Z,77.4
2023-04-02T12:25:13.345Z,77.8
2023-04-02T12:27:40.125Z,73.6
2023-04-02T12:30:06.740Z,72.6
2023-04-02T12:32:33.442Z,72.5
2023-04-02T12:35:00.122Z,77.6
2023-04-02T12:37:26.797Z,78
2023-04-02T12:39:53.456Z,74.7
2023-04-02T12:42:20.308Z,71.9
2023-04-02T12:44:46.820Z,74.2
2023-04-02T12:47:12.072Z,74.2
2023-04-02T12:49:38.735Z,74.5
2023-04-02T12:52:05.427Z,74.3
2023-04-02T12:54:32.107Z,75
2023-04-02T12:56:58.908Z,72.8
2023-04-02T12:59:25.462Z,74
2023-04-02T13:01:52.164Z,79
2023-04-02T13:04:18.840Z,85
2023-04-02T13:06:45.519Z,90.9
2023-04-02T13:09:12.198Z,91.4
2023-04-02T13:11:38.001Z,93.8
2023-04-02T13:14:04.654Z,93.5
2023-04-02T13:16:31.344Z,94.1
2023-04-02T13:18:56.573Z,92.7
2023-04-02T13:21:23.290Z,93.4
2023-04-02T13:23:49.965Z,95.5
2023-04-02T13:26:16.656Z,97.4
2023-04-02T13:28:43.328Z,98.2
2023-04-02T13:31:09.993Z,100
2023-04-02T13:33:36.685Z,100
2023-04-02T13:36:03.370Z,100
2023-04-02T13:38:30.055Z,100
2023-04-02T13:40:56.816Z,100
2023-04-02T13:43:23.421Z,100
2023-04-02T13:45:50.109Z,100
2023-04-02T13:48:16.807Z,100
2023-04-02T13:50:43.475Z,100
2023-04-02T13:53:10.195Z,100
2023-04-02T13:55:35.377Z,100
2023-04-02T13:58:02.077Z,100
2023-04-02T14:00:28.878Z,100
2023-04-02T14:02:55.441Z,100
2023-04-02T14:05:22.115Z,100
2023-04-02T14:07:48.833Z,100
2023-04-02T14:10:15.500Z,100
2023-04-02T14:12:42.182Z,100
2023-04-02T14:15:08.859Z,100
2023-04-02T14:17:35.555Z,100
2023-04-02T14:20:02.271Z,100
2023-04-02T14:22:28.911Z,100
2023-04-02T14:24:55.602Z,100
2023-04-02T14:27:22.288Z,100
2023-04-02T14:29:47.542Z,100
2023-04-02T14:32:14.187Z,100
2023-04-02T14:34:41.013Z,100
2023-04-02T14:37:07.576Z,100
2023-04-02T14:39:34.262Z,100
2023-04-02T14:42:00.933Z,100
2023-04-02T14:44:27.730Z,100
2023-04-02T14:46:54.322Z,100
2023-04-02T14:49:20.968Z,100
2023-04-02T14:51:47.669Z,100
2023-04-02T14:54:14.349Z,100
2023-04-02T14:56:41.127Z,100
2023-04-02T14:59:07.809Z,100
2023-04-02T15:01:32.933Z,100
2023-04-02T15:03:59.623Z,100
2023-04-02T15:06:26.311Z,100
2023-04-02T15:08:53.036Z,100
2023-04-02T15:11:19.749Z,100
2023-04-02T15:13:46.369Z,100
2023-04-02T15:16:13.054Z,100
2023-04-02T15:18:39.737Z,100
2023-04-02T15:21:06.459Z,100
2023-04-02T15:25:59.793Z,100
2023-04-02T15:28:26.478Z,100
2023-04-02T15:30:53.270Z,100
2023-04-02T15:33:18.421Z,100
2023-04-02T15:35:45.062Z,100
2023-04-02T15:38:11.744Z,100
2023-04-02T15:40:38.468Z,100
2023-04-02T15:43:05.117Z,100
2023-04-02T15:45:31.970Z,100
2023-04-02T15:47:58.487Z,100
2023-04-02T15:50:25.317Z,100
2023-04-02T15:52:51.854Z,100
2023-04-02T15:55:18.523Z,100
2023-04-02T15:57:45.218Z,100
2023-04-02T16:00:11.904Z,100
2023-04-02T16:02:38.583Z,100
2023-04-02T16:05:03.822Z,100
2023-04-02T16:07:30.496Z,100
2023-04-02T16:09:57.201Z,100
2023-04-02T16:12:23.865Z,100
2023-04-02T16:14:50.589Z,100
2023-04-02T16:17:17.236Z,100
2023-04-02T16:19:43.932Z,100
2023-04-02T16:22:10.620Z,100
2023-04-02T16:24:37.364Z,100
2023-04-02T16:27:03.981Z,100
2023-04-02T16:29:30.663Z,100
2023-04-02T16:31:57.377Z,100
2023-04-02T16:34:24.030Z,100
2023-04-02T16:39:15.981Z,100
2023-04-02T16:41:42.621Z,100
2023-04-02T16:44:09.307Z,100
2023-04-02T16:46:35.990Z,100
2023-04-02T16:49:02.663Z,100
2023-04-02T16:51:29.429Z,100
2023-04-02T16:53:56.038Z,100
2023-04-02T16:56:22.726Z,100
2023-04-02T16:58:49.473Z,100
2023-04-02T17:01:16.088Z,100
2023-04-02T17:03:42.802Z,100
2023-04-02T17:06:09.486Z,100
2023-04-02T17:08:36.146Z,100
2023-04-02T17:13:28.063Z,100
2023-04-02T17:15:54.738Z,100
2023-04-02T17:18:21.432Z,100
2023-04-02T17:20:48.163Z,100
2023-04-02T17:23:14.802Z,100
2023-04-02T17:25:41.518Z,100
2023-04-02T17:28:08.152Z,100
2023-04-02T17:30:34.847Z,100
2023-04-02T17:33:01.533Z,100
2023-04-02T17:37:54.890Z,100
2023-04-02T17:40:21.651Z,100
2023-04-02T17:42:46.822Z,100
2023-04-02T17:45:13.503Z,100
2023-04-02T17:47:40.178Z,100
2023-04-02T17:50:06.901Z,100
2023-04-02T17:52:33.546Z,100
2023-04-02T17:55:00.239Z,100
2023-04-02T17:57:26.914Z,100
2023-04-02T17:59:53.605Z,100
2023-04-02T18:02:20.292Z,100
2023-04-02T18:04:46.970Z,100
2023-04-02T18:07:13.683Z,100
2023-04-02T18:09:40.377Z,100
2023-04-02T18:12:07.104Z,100
2023-04-02T18:14:33.849Z,100
2023-04-02T18:19:27.088Z,100
2023-04-02T18:21:52.317Z,100
2023-04-02T18:24:19.001Z,100
2023-04-02T18:26:45.696Z,100
2023-04-02T18:29:12.377Z,100
2023-04-02T18:31:39.086Z,100
2023-04-02T18:34:05.775Z,100
2023-04-02T18:38:59.100Z,100
2023-04-02T18:41:25.816Z,100
2023-04-02T18:43:52.490Z,100
2023-04-02T18:46:19.179Z,100
2023-04-02T18:48:45.842Z,100
2023-04-02T18:51:12.608Z,100
2023-04-02T18:53:37.808Z,100
2023-04-02T18:56:04.503Z,100
2023-04-02T18:58:31.300Z,100
2023-04-02T19:00:57.994Z,100
2023-04-02T19:03:24.634Z,100
2023-04-02T19:05:51.190Z,100
2023-04-02T19:08:18.013Z,100
2023-04-02T19:10:44.552Z,100
2023-04-02T19:13:11.393Z,100
2023-04-02T19:15:38.106Z,100
2023-04-02T19:18:04.771Z,100
2023-04-02T19:20:31.287Z,100
2023-04-02T19:25:24.838Z,100
2023-04-02T19:27:50.041Z,100
2023-04-02T19:30:16.580Z,100
2023-04-02T19:32:43.497Z,100
2023-04-02T19:35:10.100Z,100
2023-04-02T19:37:36.802Z,100
2023-04-02T19:40:03.465Z,100
2023-04-02T19:42:30.164Z,100
2023-04-02T19:44:56.846Z,100
2023-04-02T19:47:23.365Z,100
2023-04-02T19:49:50.156Z,100
2023-04-02T19:52:16.884Z,100
2023-04-02T19:54:43.526Z,100
2023-04-02T19:57:10.271Z,100
2023-04-02T19:59:35.498Z,100
2023-04-02T20:04:28.844Z,100
2023-04-02T20:06:55.551Z,100
2023-04-02T20:09:22.238Z,100
2023-04-02T20:11:48.905Z,100
2023-04-02T20:14:15.649Z,100
2023-04-02T20:19:08.822Z,100
2023-04-02T20:21:35.684Z,100
2023-04-02T20:24:02.369Z,100
2023-04-02T20:26:29.002Z,100
2023-04-02T20:28:55.725Z,100
2023-04-02T20:31:20.988Z,100
2023-04-02T20:33:47.609Z,100
2023-04-02T20:36:14.355Z,100
2023-04-02T20:38:40.990Z,100
2023-04-02T20:41:07.702Z,100
2023-04-02T20:43:34.376Z,100
2023-04-02T20:46:00.913Z,100
2023-04-02T20:48:27.656Z,100
2023-04-02T20:50:54.540Z,100
2023-04-02T20:53:21.150Z,100
2023-04-02T20:55:47.788Z,100
2023-04-02T20:58:14.467Z,100
2023-04-02T21:00:41.169Z,100
2023-04-02T21:03:06.438Z,100
2023-04-02T21:05:33.044Z,100
2023-04-02T21:07:59.784Z,100
2023-04-02T21:10:26.268Z,100
2023-04-02T21:12:53.146Z,100
2023-04-02T21:15:19.743Z,100
2023-04-02T21:17:46.485Z,100
2023-04-02T21:20:13.198Z,100
2023-04-02T21:22:39.816Z,100
2023-04-02T21:25:06.573Z,100
2023-04-02T21:27:33.076Z,100
2023-04-02T21:29:59.929Z,100
2023-04-02T21:34:53.282Z,100
2023-04-02T21:37:19.994Z,100
2023-04-02T21:39:45.190Z,100
2023-04-02T21:42:11.887Z,100
2023-04-02T21:47:05.255Z,100
2023-04-02T21:49:31.972Z,100
2023-04-02T21:51:58.610Z,100
2023-04-02T21:54:25.307Z,100
2023-04-02T21:56:51.838Z,100
2023-04-02T21:59:18.680Z,100
2023-04-02T22:01:45.353Z,100
2023-04-02T22:04:12.077Z,100
2023-04-02T22:06:38.732Z,100
2023-04-02T22:09:05.438Z,100
2023-04-02T22:11:30.668Z,100
2023-04-02T22:16:24.009Z,100
2023-04-02T22:18:49.116Z,100
2023-04-02T22:21:15.991Z,100
2023-04-02T22:23:41.199Z,100
2023-04-02T22:26:07.871Z,100
2023-04-02T22:31:01.233Z,100
2023-04-02T22:33:27.919Z,100
2023-04-02T22:35:54.599Z,100
2023-04-02T22:38:20.687Z,100
2023-04-02T22:40:47.473Z,100
2023-04-02T22:43:14.049Z,100
2023-04-02T22:45:40.927Z,100
2023-04-02T22:48:07.581Z,100
2023-04-02T22:50:34.091Z,100
2023-04-02T22:53:00.986Z,100
2023-04-02T22:55:26.031Z,100
2023-04-02T22:57:52.876Z,100
2023-04-02T23:00:19.556Z,100
2023-04-02T23:02:46.154Z,100
2023-04-02T23:05:12.793Z,100
2023-04-02T23:07:39.591Z,100
2023-04-02T23:10:06.300Z,100
2023-04-02T23:12:32.814Z,100
2023-04-02T23:14:58.263Z,100
2023-04-02T23:17:23.431Z,100
2023-04-02T23:19:50.153Z,100
2023-04-02T23:22:16.834Z,100
2023-04-02T23:24:43.465Z,100
2023-04-02T23:27:10.237Z,100
2023-04-02T23:29:36.843Z,100
2023-04-02T23:32:03.391Z,100
2023-04-02T23:34:30.254Z,100
2023-04-02T23:36:56.974Z,100
2023-04-02T23:39:23.620Z,100
2023-04-02T23:41:50.310Z,100
2023-04-02T23:44:16.984Z,100
2023-04-02T23:49:10.372Z,100
2023-04-02T23:51:36.953Z,100
2023-04-02T23:54:02.169Z,100
2023-04-02T23:56:28.967Z,100
2023-04-02T23:58:55.689Z,100
